sensor_id;sensor_type;location;lat;lon;timestamp;P1;durP1;ratioP1;P2;durP2;ratioP2
11004;SDS011;5555;59.622;16.556;2022-08-18T00:04:46;15.20;;;13.90;;
11004;SDS011;5555;59.622;16.556;2022-08-18T00:07:14;15.80;;;14.33;;
11004;SDS011;5555;59.622;16.556;2022-08-18T00:09:42;15.73;;;14.33;;
11004;SDS011;5555;59.622;16.556;2022-08-18T00:12:11;16.13;;;14.93;;
11004;SDS011;5555;59.622;16.556;2022-08-18T00:14:48;16.13;;;14.70;;
11004;SDS011;5555;59.622;16.556;2022-08-18T00:17:14;16.00;;;14.90;;
11004;SDS011;5555;59.622;16.556;2022-08-18T00:19:41;16.07;;;14.80;;
11004;SDS011;5555;59.622;16.556;2022-08-18T00:22:07;15.33;;;14.13;;
11004;SDS011;5555;59.622;16.556;2022-08-18T00:24:33;16.37;;;15.07;;
11004;SDS011;5555;59.622;16.556;2022-08-18T00:26:59;16.53;;;15.03;;
11004;SDS011;5555;59.622;16.556;2022-08-18T00:29:25;17.20;;;15.77;;
11004;SDS011;5555;59.622;16.556;2022-08-18T00:31:51;16.80;;;15.50;;
11004;SDS011;5555;59.622;16.556;2022-08-18T00:34:17;16.50;;;15.10;;
11004;SDS011;5555;59.622;16.556;2022-08-18T00:36:43;17.50;;;16.03;;
11004;SDS011;5555;59.622;16.556;2022-08-18T00:39:09;16.20;;;14.97;;
11004;SDS011;5555;59.622;16.556;2022-08-18T00:41:34;17.23;;;15.83;;
11004;SDS011;5555;59.622;16.556;2022-08-18T00:44:00;17.37;;;15.97;;
11004;SDS011;5555;59.622;16.556;2022-08-18T00:46:29;17.90;;;16.30;;
11004;SDS011;5555;59.622;16.556;2022-08-18T00:48:57;18.67;;;16.90;;
11004;SDS011;5555;59.622;16.556;2022-08-18T00:51:41;18.13;;;16.53;;
11004;SDS011;5555;59.622;16.556;2022-08-18T00:54:13;18.43;;;17.00;;
11004;SDS011;5555;59.622;16.556;2022-08-18T00:56:47;17.50;;;16.10;;
11004;SDS011;5555;59.622;16.556;2022-08-18T00:59:30;17.27;;;15.77;;
11004;SDS011;5555;59.622;16.556;2022-08-18T01:01:58;16.97;;;15.43;;
11004;SDS011;5555;59.622;16.556;2022-08-18T01:04:29;17.23;;;15.67;;
11004;SDS011;5555;59.622;16.556;2022-08-18T01:07:13;17.30;;;15.87;;
11004;SDS011;5555;59.622;16.556;2022-08-18T01:09:44;17.57;;;16.10;;
11004;SDS011;5555;59.622;16.556;2022-08-18T01:12:13;17.10;;;15.63;;
11004;SDS011;5555;59.622;16.556;2022-08-18T01:14:39;16.03;;;14.73;;
11004;SDS011;5555;59.622;16.556;2022-08-18T01:17:05;16.87;;;15.37;;
11004;SDS011;5555;59.622;16.556;2022-08-18T01:19:49;16.47;;;15.03;;
11004;SDS011;5555;59.622;16.556;2022-08-18T01:22:41;16.57;;;15.23;;
11004;SDS011;5555;59.622;16.556;2022-08-18T01:25:14;16.80;;;15.53;;
11004;SDS011;5555;59.622;16.556;2022-08-18T01:28:02;15.57;;;14.43;;
11004;SDS011;5555;59.622;16.556;2022-08-18T01:30:30;16.40;;;15.10;;
11004;SDS011;5555;59.622;16.556;2022-08-18T01:33:08;15.50;;;14.30;;
11004;SDS011;5555;59.622;16.556;2022-08-18T01:35:36;15.90;;;14.70;;
11004;SDS011;5555;59.622;16.556;2022-08-18T01:38:04;15.37;;;14.27;;
11004;SDS011;5555;59.622;16.556;2022-08-18T01:40:30;15.90;;;14.57;;
11004;SDS011;5555;59.622;16.556;2022-08-18T01:42:56;16.40;;;15.10;;
11004;SDS011;5555;59.622;16.556;2022-08-18T01:45:22;15.20;;;13.90;;
11004;SDS011;5555;59.622;16.556;2022-08-18T01:47:48;16.03;;;14.60;;
11004;SDS011;5555;59.622;16.556;2022-08-18T01:50:15;16.83;;;15.43;;
11004;SDS011;5555;59.622;16.556;2022-08-18T01:52:41;15.87;;;14.63;;
11004;SDS011;5555;59.622;16.556;2022-08-18T01:55:07;16.40;;;15.20;;
11004;SDS011;5555;59.622;16.556;2022-08-18T01:57:37;14.90;;;13.80;;
11004;SDS011;5555;59.622;16.556;2022-08-18T02:00:12;16.27;;;14.93;;
11004;SDS011;5555;59.622;16.556;2022-08-18T02:02:41;15.43;;;14.23;;
11004;SDS011;5555;59.622;16.556;2022-08-18T02:05:11;15.77;;;14.53;;
11004;SDS011;5555;59.622;16.556;2022-08-18T02:07:41;16.67;;;15.20;;
11004;SDS011;5555;59.622;16.556;2022-08-18T02:10:06;16.47;;;15.27;;
11004;SDS011;5555;59.622;16.556;2022-08-18T02:12:34;16.30;;;15.10;;
11004;SDS011;5555;59.622;16.556;2022-08-18T02:15:01;12.20;;;11.30;;
11004;SDS011;5555;59.622;16.556;2022-08-18T02:17:27;16.50;;;15.20;;
11004;SDS011;5555;59.622;16.556;2022-08-18T02:19:53;16.07;;;14.87;;
11004;SDS011;5555;59.622;16.556;2022-08-18T02:22:19;17.03;;;15.57;;
11004;SDS011;5555;59.622;16.556;2022-08-18T02:24:45;15.87;;;14.67;;
11004;SDS011;5555;59.622;16.556;2022-08-18T02:27:12;15.23;;;14.13;;
11004;SDS011;5555;59.622;16.556;2022-08-18T02:29:39;16.20;;;14.80;;
11004;SDS011;5555;59.622;16.556;2022-08-18T02:32:05;16.87;;;15.30;;
11004;SDS011;5555;59.622;16.556;2022-08-18T02:34:32;17.33;;;15.77;;
11004;SDS011;5555;59.622;16.556;2022-08-18T02:36:59;16.77;;;15.57;;
11004;SDS011;5555;59.622;16.556;2022-08-18T02:39:25;17.50;;;16.23;;
11004;SDS011;5555;59.622;16.556;2022-08-18T02:41:51;17.47;;;16.17;;
11004;SDS011;5555;59.622;16.556;2022-08-18T02:44:17;17.23;;;15.93;;
11004;SDS011;5555;59.622;16.556;2022-08-18T02:46:43;15.00;;;13.97;;
11004;SDS011;5555;59.622;16.556;2022-08-18T02:49:09;17.30;;;16.07;;
11004;SDS011;5555;59.622;16.556;2022-08-18T02:51:34;17.10;;;15.57;;
11004;SDS011;5555;59.622;16.556;2022-08-18T02:54:00;17.83;;;16.50;;
11004;SDS011;5555;59.622;16.556;2022-08-18T02:56:28;18.10;;;16.70;;
11004;SDS011;5555;59.622;16.556;2022-08-18T02:58:56;17.77;;;16.20;;
11004;SDS011;5555;59.622;16.556;2022-08-18T03:01:35;17.90;;;16.50;;
11004;SDS011;5555;59.622;16.556;2022-08-18T03:04:04;17.70;;;16.00;;
11004;SDS011;5555;59.622;16.556;2022-08-18T03:06:36;17.27;;;15.83;;
11004;SDS011;5555;59.622;16.556;2022-08-18T03:09:07;17.33;;;15.90;;
11004;SDS011;5555;59.622;16.556;2022-08-18T03:11:34;18.57;;;17.10;;
11004;SDS011;5555;59.622;16.556;2022-08-18T03:14:00;18.73;;;17.23;;
11004;SDS011;5555;59.622;16.556;2022-08-18T03:16:26;18.33;;;16.77;;
11004;SDS011;5555;59.622;16.556;2022-08-18T03:18:55;18.07;;;16.70;;
11004;SDS011;5555;59.622;16.556;2022-08-18T03:21:21;19.10;;;17.60;;
11004;SDS011;5555;59.622;16.556;2022-08-18T03:23:48;18.10;;;16.63;;
11004;SDS011;5555;59.622;16.556;2022-08-18T03:26:16;19.03;;;17.60;;
11004;SDS011;5555;59.622;16.556;2022-08-18T03:28:45;18.70;;;17.27;;
11004;SDS011;5555;59.622;16.556;2022-08-18T03:31:12;18.53;;;17.13;;
11004;SDS011;5555;59.622;16.556;2022-08-18T03:33:40;19.10;;;17.50;;
11004;SDS011;5555;59.622;16.556;2022-08-18T03:38:44;18.27;;;16.87;;
11004;SDS011;5555;59.622;16.556;2022-08-18T03:41:11;18.40;;;16.93;;
11004;SDS011;5555;59.622;16.556;2022-08-18T03:43:39;17.57;;;16.27;;
11004;SDS011;5555;59.622;16.556;2022-08-18T03:46:07;17.87;;;16.47;;
11004;SDS011;5555;59.622;16.556;2022-08-18T03:48:35;17.40;;;15.97;;
11004;SDS011;5555;59.622;16.556;2022-08-18T03:51:04;16.63;;;15.27;;
11004;SDS011;5555;59.622;16.556;2022-08-18T03:53:38;17.17;;;15.87;;
11004;SDS011;5555;59.622;16.556;2022-08-18T03:56:08;16.63;;;15.33;;
11004;SDS011;5555;59.622;16.556;2022-08-18T03:58:45;16.80;;;15.40;;
11004;SDS011;5555;59.622;16.556;2022-08-18T04:01:14;16.57;;;15.07;;
11004;SDS011;5555;59.622;16.556;2022-08-18T04:03:42;17.27;;;15.80;;
11004;SDS011;5555;59.622;16.556;2022-08-18T04:06:19;17.23;;;16.03;;
11004;SDS011;5555;59.622;16.556;2022-08-18T04:08:49;16.27;;;14.97;;
11004;SDS011;5555;59.622;16.556;2022-08-18T04:11:16;15.63;;;14.50;;
11004;SDS011;5555;59.622;16.556;2022-08-18T04:13:42;16.97;;;15.57;;
11004;SDS011;5555;59.622;16.556;2022-08-18T04:16:08;17.10;;;15.80;;
11004;SDS011;5555;59.622;16.556;2022-08-18T04:18:34;16.23;;;15.07;;
11004;SDS011;5555;59.622;16.556;2022-08-18T04:21:04;16.90;;;15.50;;
11004;SDS011;5555;59.622;16.556;2022-08-18T04:23:32;15.97;;;14.67;;
11004;SDS011;5555;59.622;16.556;2022-08-18T04:26:02;15.67;;;14.47;;
11004;SDS011;5555;59.622;16.556;2022-08-18T04:28:29;15.97;;;14.47;;
11004;SDS011;5555;59.622;16.556;2022-08-18T04:30:56;15.33;;;14.20;;
11004;SDS011;5555;59.622;16.556;2022-08-18T04:33:25;15.60;;;14.30;;
11004;SDS011;5555;59.622;16.556;2022-08-18T04:35:51;15.43;;;14.23;;
11004;SDS011;5555;59.622;16.556;2022-08-18T04:38:18;14.63;;;13.37;;
11004;SDS011;5555;59.622;16.556;2022-08-18T04:40:43;15.23;;;14.03;;
11004;SDS011;5555;59.622;16.556;2022-08-18T04:43:09;15.63;;;14.43;;
11004;SDS011;5555;59.622;16.556;2022-08-18T04:45:39;16.30;;;15.00;;
11004;SDS011;5555;59.622;16.556;2022-08-18T04:48:06;14.17;;;13.07;;
11004;SDS011;5555;59.622;16.556;2022-08-18T04:50:32;15.10;;;13.90;;
11004;SDS011;5555;59.622;16.556;2022-08-18T04:52:59;14.80;;;13.67;;
11004;SDS011;5555;59.622;16.556;2022-08-18T04:55:51;13.70;;;12.70;;
11004;SDS011;5555;59.622;16.556;2022-08-18T04:58:18;14.40;;;13.33;;
11004;SDS011;5555;59.622;16.556;2022-08-18T05:00:45;14.23;;;13.03;;
11004;SDS011;5555;59.622;16.556;2022-08-18T05:03:19;14.77;;;13.67;;
11004;SDS011;5555;59.622;16.556;2022-08-18T05:05:45;14.13;;;13.03;;
11004;SDS011;5555;59.622;16.556;2022-08-18T05:08:11;14.60;;;13.40;;
11004;SDS011;5555;59.622;16.556;2022-08-18T05:10:36;14.47;;;13.17;;
11004;SDS011;5555;59.622;16.556;2022-08-18T05:13:04;14.00;;;12.77;;
11004;SDS011;5555;59.622;16.556;2022-08-18T05:15:30;14.77;;;13.50;;
11004;SDS011;5555;59.622;16.556;2022-08-18T05:17:57;13.33;;;12.23;;
11004;SDS011;5555;59.622;16.556;2022-08-18T05:20:23;13.53;;;12.53;;
11004;SDS011;5555;59.622;16.556;2022-08-18T05:22:49;13.77;;;12.67;;
11004;SDS011;5555;59.622;16.556;2022-08-18T05:25:14;13.67;;;12.47;;
11004;SDS011;5555;59.622;16.556;2022-08-18T05:27:41;14.97;;;13.73;;
11004;SDS011;5555;59.622;16.556;2022-08-18T05:30:08;12.77;;;11.77;;
11004;SDS011;5555;59.622;16.556;2022-08-18T05:32:40;14.43;;;13.13;;
11004;SDS011;5555;59.622;16.556;2022-08-18T05:35:11;13.80;;;12.70;;
11004;SDS011;5555;59.622;16.556;2022-08-18T05:40:29;14.50;;;13.27;;
11004;SDS011;5555;59.622;16.556;2022-08-18T05:42:56;13.83;;;12.63;;
11004;SDS011;5555;59.622;16.556;2022-08-18T05:45:23;16.23;;;14.60;;
11004;SDS011;5555;59.622;16.556;2022-08-18T05:47:49;16.33;;;14.90;;
11004;SDS011;5555;59.622;16.556;2022-08-18T05:50:17;16.77;;;15.43;;
11004;SDS011;5555;59.622;16.556;2022-08-18T05:55:20;16.20;;;14.93;;
11004;SDS011;5555;59.622;16.556;2022-08-18T05:58:14;15.93;;;14.67;;
11004;SDS011;5555;59.622;16.556;2022-08-18T06:00:46;15.93;;;14.73;;
11004;SDS011;5555;59.622;16.556;2022-08-18T06:03:24;16.47;;;15.07;;
11004;SDS011;5555;59.622;16.556;2022-08-18T06:05:58;15.37;;;14.07;;
11004;SDS011;5555;59.622;16.556;2022-08-18T06:09:18;15.37;;;14.00;;
11004;SDS011;5555;59.622;16.556;2022-08-18T06:11:22;14.47;;;13.13;;
11004;SDS011;5555;59.622;16.556;2022-08-18T06:13:47;14.07;;;12.97;;
11004;SDS011;5555;59.622;16.556;2022-08-18T06:16:21;13.80;;;12.70;;
11004;SDS011;5555;59.622;16.556;2022-08-18T06:25:10;12.87;;;11.77;;
11004;SDS011;5555;59.622;16.556;2022-08-18T06:27:54;14.20;;;13.10;;
11004;SDS011;5555;59.622;16.556;2022-08-18T06:41:44;11.83;;;10.80;;
11004;SDS011;5555;59.622;16.556;2022-08-18T06:44:30;11.57;;;10.67;;
11004;SDS011;5555;59.622;16.556;2022-08-18T06:52:36;11.10;;;10.20;;
11004;SDS011;5555;59.622;16.556;2022-08-18T06:55:15;10.10;;;9.30;;
11004;SDS011;5555;59.622;16.556;2022-08-18T06:57:53;10.27;;;9.47;;
11004;SDS011;5555;59.622;16.556;2022-08-18T07:00:23;10.40;;;9.67;;
11004;SDS011;5555;59.622;16.556;2022-08-18T07:02:58;10.30;;;9.43;;
11004;SDS011;5555;59.622;16.556;2022-08-18T07:05:32;10.60;;;9.70;;
11004;SDS011;5555;59.622;16.556;2022-08-18T07:10:42;9.80;;;9.00;;
11004;SDS011;5555;59.622;16.556;2022-08-18T07:15:37;9.90;;;9.03;;
11004;SDS011;5555;59.622;16.556;2022-08-18T07:18:04;10.10;;;9.37;;
11004;SDS011;5555;59.622;16.556;2022-08-18T07:20:40;10.40;;;9.60;;
11004;SDS011;5555;59.622;16.556;2022-08-18T07:23:25;10.40;;;9.60;;
11004;SDS011;5555;59.622;16.556;2022-08-18T07:25:59;10.33;;;9.23;;
11004;SDS011;5555;59.622;16.556;2022-08-18T07:28:33;9.23;;;8.43;;
11004;SDS011;5555;59.622;16.556;2022-08-18T07:31:08;9.40;;;8.70;;
11004;SDS011;5555;59.622;16.556;2022-08-18T07:34:27;9.63;;;8.80;;
11004;SDS011;5555;59.622;16.556;2022-08-18T07:36:48;9.67;;;8.80;;
11004;SDS011;5555;59.622;16.556;2022-08-18T07:41:54;8.43;;;7.73;;
11004;SDS011;5555;59.622;16.556;2022-08-18T07:47:05;9.40;;;8.70;;
11004;SDS011;5555;59.622;16.556;2022-08-18T07:49:44;9.67;;;8.73;;
11004;SDS011;5555;59.622;16.556;2022-08-18T07:52:23;9.23;;;8.13;;
11004;SDS011;5555;59.622;16.556;2022-08-18T07:57:44;8.63;;;7.97;;
11004;SDS011;5555;59.622;16.556;2022-08-18T08:08:46;7.90;;;7.30;;
11004;SDS011;5555;59.622;16.556;2022-08-18T08:14:47;8.27;;;7.50;;
11004;SDS011;5555;59.622;16.556;2022-08-18T08:28:05;7.50;;;6.80;;
11004;SDS011;5555;59.622;16.556;2022-08-18T08:31:02;7.33;;;6.73;;
11004;SDS011;5555;59.622;16.556;2022-08-18T08:33:38;6.18;;;5.57;;
11004;SDS011;5555;59.622;16.556;2022-08-18T08:36:13;6.37;;;5.87;;
11004;SDS011;5555;59.622;16.556;2022-08-18T08:38:48;6.97;;;6.10;;
11004;SDS011;5555;59.622;16.556;2022-08-18T08:41:37;6.57;;;6.07;;
11004;SDS011;5555;59.622;16.556;2022-08-18T08:44:31;6.20;;;5.70;;
11004;SDS011;5555;59.622;16.556;2022-08-18T08:47:06;7.00;;;6.40;;
11004;SDS011;5555;59.622;16.556;2022-08-18T08:49:38;6.67;;;6.07;;
11004;SDS011;5555;59.622;16.556;2022-08-18T08:52:14;7.07;;;6.47;;
11004;SDS011;5555;59.622;16.556;2022-08-18T08:54:58;6.97;;;6.37;;
11004;SDS011;5555;59.622;16.556;2022-08-18T08:57:30;6.40;;;5.80;;
11004;SDS011;5555;59.622;16.556;2022-08-18T09:00:03;6.23;;;5.73;;
11004;SDS011;5555;59.622;16.556;2022-08-18T09:21:25;6.80;;;6.30;;
11004;SDS011;5555;59.622;16.556;2022-08-18T09:24:07;6.13;;;5.63;;
11004;SDS011;5555;59.622;16.556;2022-08-18T09:26:45;7.60;;;5.70;;
11004;SDS011;5555;59.622;16.556;2022-08-18T09:40:44;5.70;;;5.13;;
11004;SDS011;5555;59.622;16.556;2022-08-18T09:43:55;5.83;;;5.40;;
11004;SDS011;5555;59.622;16.556;2022-08-18T09:52:00;5.97;;;5.57;;
11004;SDS011;5555;59.622;16.556;2022-08-18T09:55:00;5.97;;;5.40;;
11004;SDS011;5555;59.622;16.556;2022-08-18T09:57:34;6.50;;;5.90;;
11004;SDS011;5555;59.622;16.556;2022-08-18T10:07:40;6.30;;;5.87;;
11004;SDS011;5555;59.622;16.556;2022-08-18T10:16:20;6.27;;;5.67;;
11004;SDS011;5555;59.622;16.556;2022-08-18T10:19:40;7.57;;;5.60;;
11004;SDS011;5555;59.622;16.556;2022-08-18T10:24:22;5.80;;;5.30;;
11004;SDS011;5555;59.622;16.556;2022-08-18T10:37:11;6.25;;;5.70;;
11004;SDS011;5555;59.622;16.556;2022-08-18T10:39:43;5.78;;;5.30;;
11004;SDS011;5555;59.622;16.556;2022-08-18T10:42:27;5.75;;;5.22;;
11004;SDS011;5555;59.622;16.556;2022-08-18T10:50:40;7.45;;;5.90;;
11004;SDS011;5555;59.622;16.556;2022-08-18T10:56:32;6.28;;;5.70;;
11004;SDS011;5555;59.622;16.556;2022-08-18T11:02:20;6.07;;;5.55;;
11004;SDS011;5555;59.622;16.556;2022-08-18T11:05:06;8.45;;;5.80;;
11004;SDS011;5555;59.622;16.556;2022-08-18T11:07:35;6.25;;;5.65;;
11004;SDS011;5555;59.622;16.556;2022-08-18T11:10:20;5.80;;;5.30;;
11004;SDS011;5555;59.622;16.556;2022-08-18T11:15:45;6.72;;;5.78;;
11004;SDS011;5555;59.622;16.556;2022-08-18T11:18:37;5.95;;;5.43;;
11004;SDS011;5555;59.622;16.556;2022-08-18T11:26:35;5.50;;;5.00;;
11004;SDS011;5555;59.622;16.556;2022-08-18T11:32:06;5.45;;;4.95;;
11004;SDS011;5555;59.622;16.556;2022-08-18T11:34:46;5.30;;;4.90;;
11004;SDS011;5555;59.622;16.556;2022-08-18T11:37:23;6.50;;;5.00;;
11004;SDS011;5555;59.622;16.556;2022-08-18T11:40:04;5.20;;;4.82;;
11004;SDS011;5555;59.622;16.556;2022-08-18T11:42:36;4.75;;;4.43;;
11004;SDS011;5555;59.622;16.556;2022-08-18T11:45:06;5.97;;;5.10;;
11004;SDS011;5555;59.622;16.556;2022-08-18T11:47:37;5.57;;;4.80;;
11004;SDS011;5555;59.622;16.556;2022-08-18T11:50:26;5.65;;;5.05;;
11004;SDS011;5555;59.622;16.556;2022-08-18T11:52:54;5.45;;;4.95;;
11004;SDS011;5555;59.622;16.556;2022-08-18T11:55:31;5.30;;;4.57;;
11004;SDS011;5555;59.622;16.556;2022-08-18T11:57:58;5.13;;;4.65;;
11004;SDS011;5555;59.622;16.556;2022-08-18T12:00:41;6.50;;;5.22;;
11004;SDS011;5555;59.622;16.556;2022-08-18T12:06:19;5.07;;;4.57;;
11004;SDS011;5555;59.622;16.556;2022-08-18T12:08:55;6.75;;;5.20;;
11004;SDS011;5555;59.622;16.556;2022-08-18T12:11:25;6.22;;;5.30;;
11004;SDS011;5555;59.622;16.556;2022-08-18T12:14:14;5.75;;;5.25;;
11004;SDS011;5555;59.622;16.556;2022-08-18T12:16:43;7.22;;;5.22;;
11004;SDS011;5555;59.622;16.556;2022-08-18T12:19:10;5.47;;;4.85;;
11004;SDS011;5555;59.622;16.556;2022-08-18T12:21:38;5.47;;;5.07;;
11004;SDS011;5555;59.622;16.556;2022-08-18T12:26:49;5.68;;;5.28;;
11004;SDS011;5555;59.622;16.556;2022-08-18T12:29:15;6.47;;;5.03;;
11004;SDS011;5555;59.622;16.556;2022-08-18T12:31:45;5.95;;;5.32;;
11004;SDS011;5555;59.622;16.556;2022-08-18T12:34:12;6.07;;;5.45;;
11004;SDS011;5555;59.622;16.556;2022-08-18T12:36:41;6.25;;;5.60;;
11004;SDS011;5555;59.622;16.556;2022-08-18T12:39:06;6.65;;;5.60;;
11004;SDS011;5555;59.622;16.556;2022-08-18T12:41:32;6.20;;;5.70;;
11004;SDS011;5555;59.622;16.556;2022-08-18T12:43:58;5.82;;;5.18;;
11004;SDS011;5555;59.622;16.556;2022-08-18T12:46:23;5.85;;;5.35;;
11004;SDS011;5555;59.622;16.556;2022-08-18T12:48:49;6.00;;;5.47;;
11004;SDS011;5555;59.622;16.556;2022-08-18T12:51:15;5.82;;;4.95;;
11004;SDS011;5555;59.622;16.556;2022-08-18T12:53:41;5.28;;;4.82;;
11004;SDS011;5555;59.622;16.556;2022-08-18T12:56:09;6.25;;;5.70;;
11004;SDS011;5555;59.622;16.556;2022-08-18T12:58:42;5.57;;;5.18;;
11004;SDS011;5555;59.622;16.556;2022-08-18T13:01:08;6.75;;;5.45;;
11004;SDS011;5555;59.622;16.556;2022-08-18T13:03:34;7.53;;;5.47;;
11004;SDS011;5555;59.622;16.556;2022-08-18T13:06:00;6.50;;;5.97;;
11004;SDS011;5555;59.622;16.556;2022-08-18T13:08:26;6.10;;;5.55;;
11004;SDS011;5555;59.622;16.556;2022-08-18T13:10:52;6.90;;;5.85;;
11004;SDS011;5555;59.622;16.556;2022-08-18T13:13:18;6.60;;;6.10;;
11004;SDS011;5555;59.622;16.556;2022-08-18T13:15:46;6.03;;;5.53;;
11004;SDS011;5555;59.622;16.556;2022-08-18T13:18:12;5.57;;;5.18;;
11004;SDS011;5555;59.622;16.556;2022-08-18T13:20:38;6.35;;;5.75;;
11004;SDS011;5555;59.622;16.556;2022-08-18T13:23:06;6.53;;;6.00;;
11004;SDS011;5555;59.622;16.556;2022-08-18T13:25:31;6.93;;;6.00;;
11004;SDS011;5555;59.622;16.556;2022-08-18T13:27:57;6.38;;;5.78;;
11004;SDS011;5555;59.622;16.556;2022-08-18T13:30:23;6.63;;;6.03;;
11004;SDS011;5555;59.622;16.556;2022-08-18T13:32:49;6.00;;;5.47;;
11004;SDS011;5555;59.622;16.556;2022-08-18T13:35:15;6.47;;;5.97;;
11004;SDS011;5555;59.622;16.556;2022-08-18T13:37:41;6.72;;;6.13;;
11004;SDS011;5555;59.622;16.556;2022-08-18T13:40:08;6.57;;;5.97;;
11004;SDS011;5555;59.622;16.556;2022-08-18T13:42:41;7.15;;;6.47;;
11004;SDS011;5555;59.622;16.556;2022-08-18T13:45:11;6.45;;;5.82;;
11004;SDS011;5555;59.622;16.556;2022-08-18T13:47:38;5.93;;;5.43;;
11004;SDS011;5555;59.622;16.556;2022-08-18T13:50:04;5.75;;;5.25;;
11004;SDS011;5555;59.622;16.556;2022-08-18T13:52:30;5.40;;;5.10;;
11004;SDS011;5555;59.622;16.556;2022-08-18T13:54:56;6.55;;;5.95;;
11004;SDS011;5555;59.622;16.556;2022-08-18T13:57:22;5.15;;;4.85;;
11004;SDS011;5555;59.622;16.556;2022-08-18T13:59:48;6.13;;;5.72;;
11004;SDS011;5555;59.622;16.556;2022-08-18T14:02:13;6.65;;;6.15;;
11004;SDS011;5555;59.622;16.556;2022-08-18T14:04:39;6.93;;;6.28;;
11004;SDS011;5555;59.622;16.556;2022-08-18T14:07:05;7.47;;;5.97;;
11004;SDS011;5555;59.622;16.556;2022-08-18T14:09:33;7.32;;;6.45;;
11004;SDS011;5555;59.622;16.556;2022-08-18T14:12:00;7.28;;;6.60;;
11004;SDS011;5555;59.622;16.556;2022-08-18T14:14:27;6.55;;;6.05;;
11004;SDS011;5555;59.622;16.556;2022-08-18T14:16:53;6.43;;;5.95;;
11004;SDS011;5555;59.622;16.556;2022-08-18T14:19:18;6.95;;;6.28;;
11004;SDS011;5555;59.622;16.556;2022-08-18T14:22:02;8.05;;;6.05;;
11004;SDS011;5555;59.622;16.556;2022-08-18T14:24:47;7.05;;;6.38;;
11004;SDS011;5555;59.622;16.556;2022-08-18T14:27:32;7.50;;;6.80;;
11004;SDS011;5555;59.622;16.556;2022-08-18T14:30:00;7.53;;;6.93;;
11004;SDS011;5555;59.622;16.556;2022-08-18T14:32:31;7.68;;;6.97;;
11004;SDS011;5555;59.622;16.556;2022-08-18T14:34:58;7.20;;;6.60;;
11004;SDS011;5555;59.622;16.556;2022-08-18T14:37:26;7.50;;;6.80;;
11004;SDS011;5555;59.622;16.556;2022-08-18T14:39:52;7.55;;;6.68;;
11004;SDS011;5555;59.622;16.556;2022-08-18T14:42:18;7.85;;;6.72;;
11004;SDS011;5555;59.622;16.556;2022-08-18T14:44:45;8.02;;;7.30;;
11004;SDS011;5555;59.622;16.556;2022-08-18T14:47:11;7.88;;;7.18;;
11004;SDS011;5555;59.622;16.556;2022-08-18T14:49:37;6.90;;;6.30;;
11004;SDS011;5555;59.622;16.556;2022-08-18T14:52:04;7.70;;;7.10;;
11004;SDS011;5555;59.622;16.556;2022-08-18T14:54:31;7.00;;;6.50;;
11004;SDS011;5555;59.622;16.556;2022-08-18T14:56:58;7.83;;;7.10;;
11004;SDS011;5555;59.622;16.556;2022-08-18T14:59:33;8.27;;;7.50;;
11004;SDS011;5555;59.622;16.556;2022-08-18T15:01:59;8.77;;;8.00;;
11004;SDS011;5555;59.622;16.556;2022-08-18T15:04:25;8.67;;;7.97;;
11004;SDS011;5555;59.622;16.556;2022-08-18T15:06:53;8.53;;;7.73;;
11004;SDS011;5555;59.622;16.556;2022-08-18T15:09:19;10.23;;;8.03;;
11004;SDS011;5555;59.622;16.556;2022-08-18T15:11:46;9.30;;;8.43;;
11004;SDS011;5555;59.622;16.556;2022-08-18T15:14:12;10.07;;;9.13;;
11004;SDS011;5555;59.622;16.556;2022-08-18T15:16:39;9.97;;;8.97;;
11004;SDS011;5555;59.622;16.556;2022-08-18T15:19:04;9.87;;;9.07;;
11004;SDS011;5555;59.622;16.556;2022-08-18T15:21:30;12.17;;;9.10;;
11004;SDS011;5555;59.622;16.556;2022-08-18T15:24:31;10.30;;;9.50;;
11004;SDS011;5555;59.622;16.556;2022-08-18T15:27:16;10.43;;;9.63;;
11004;SDS011;5555;59.622;16.556;2022-08-18T15:29:41;10.97;;;9.87;;
11004;SDS011;5555;59.622;16.556;2022-08-18T15:32:08;10.40;;;9.60;;
11004;SDS011;5555;59.622;16.556;2022-08-18T15:34:34;11.57;;;10.57;;
11004;SDS011;5555;59.622;16.556;2022-08-18T15:37:00;11.80;;;10.60;;
11004;SDS011;5555;59.622;16.556;2022-08-18T15:39:25;12.70;;;11.70;;
11004;SDS011;5555;59.622;16.556;2022-08-18T15:41:51;12.07;;;11.07;;
11004;SDS011;5555;59.622;16.556;2022-08-18T15:44:18;11.43;;;10.63;;
11004;SDS011;5555;59.622;16.556;2022-08-18T15:46:46;12.03;;;10.93;;
11004;SDS011;5555;59.622;16.556;2022-08-18T15:49:12;11.77;;;10.60;;
11004;SDS011;5555;59.622;16.556;2022-08-18T15:51:39;12.37;;;11.23;;
11004;SDS011;5555;59.622;16.556;2022-08-18T15:54:06;14.37;;;12.87;;
11004;SDS011;5555;59.622;16.556;2022-08-18T15:56:32;19.83;;;17.83;;
11004;SDS011;5555;59.622;16.556;2022-08-18T15:58:58;22.13;;;20.03;;
11004;SDS011;5555;59.622;16.556;2022-08-18T16:01:30;22.50;;;20.23;;
11004;SDS011;5555;59.622;16.556;2022-08-18T16:03:57;14.53;;;10.43;;
11004;SDS011;5555;59.622;16.556;2022-08-18T16:06:23;10.90;;;9.77;;
11004;SDS011;5555;59.622;16.556;2022-08-18T16:08:51;7.37;;;5.20;;
11004;SDS011;5555;59.622;16.556;2022-08-18T16:11:17;4.00;;;2.70;;
11004;SDS011;5555;59.622;16.556;2022-08-18T16:13:44;8.17;;;6.53;;
11004;SDS011;5555;59.622;16.556;2022-08-18T16:16:13;7.17;;;6.47;;
11004;SDS011;5555;59.622;16.556;2022-08-18T16:18:44;7.17;;;6.50;;
11004;SDS011;5555;59.622;16.556;2022-08-18T16:21:12;7.60;;;5.90;;
11004;SDS011;5555;59.622;16.556;2022-08-18T16:23:40;6.17;;;5.63;;
11004;SDS011;5555;59.622;16.556;2022-08-18T16:26:08;9.63;;;8.83;;
11004;SDS011;5555;59.622;16.556;2022-08-18T16:28:36;11.63;;;10.57;;
11004;SDS011;5555;59.622;16.556;2022-08-18T16:31:03;10.50;;;9.53;;
11004;SDS011;5555;59.622;16.556;2022-08-18T16:33:30;7.73;;;7.03;;
11004;SDS011;5555;59.622;16.556;2022-08-18T16:36:00;6.57;;;5.90;;
11004;SDS011;5555;59.622;16.556;2022-08-18T16:38:31;6.07;;;5.47;;
11004;SDS011;5555;59.622;16.556;2022-08-18T16:41:05;6.40;;;5.83;;
11004;SDS011;5555;59.622;16.556;2022-08-18T16:43:32;6.40;;;5.80;;
11004;SDS011;5555;59.622;16.556;2022-08-18T16:45:59;6.80;;;6.30;;
11004;SDS011;5555;59.622;16.556;2022-08-18T16:48:27;6.67;;;6.07;;
11004;SDS011;5555;59.622;16.556;2022-08-18T16:50:53;6.90;;;6.30;;
11004;SDS011;5555;59.622;16.556;2022-08-18T16:53:19;8.67;;;7.90;;
11004;SDS011;5555;59.622;16.556;2022-08-18T16:55:45;8.60;;;7.90;;
11004;SDS011;5555;59.622;16.556;2022-08-18T16:58:11;8.27;;;7.67;;
11004;SDS011;5555;59.622;16.556;2022-08-18T17:00:56;8.67;;;7.87;;
11004;SDS011;5555;59.622;16.556;2022-08-18T17:03:40;8.20;;;7.50;;
11004;SDS011;5555;59.622;16.556;2022-08-18T17:06:24;6.17;;;5.67;;
11004;SDS011;5555;59.622;16.556;2022-08-18T17:08:52;6.57;;;6.07;;
11004;SDS011;5555;59.622;16.556;2022-08-18T17:11:20;6.10;;;5.70;;
11004;SDS011;5555;59.622;16.556;2022-08-18T17:13:47;7.67;;;6.97;;
11004;SDS011;5555;59.622;16.556;2022-08-18T17:16:15;8.20;;;7.60;;
11004;SDS011;5555;59.622;16.556;2022-08-18T17:18:42;7.73;;;7.13;;
11004;SDS011;5555;59.622;16.556;2022-08-18T17:21:09;8.23;;;7.50;;
11004;SDS011;5555;59.622;16.556;2022-08-18T17:23:38;7.63;;;6.93;;
11004;SDS011;5555;59.622;16.556;2022-08-18T17:26:06;7.63;;;6.83;;
11004;SDS011;5555;59.622;16.556;2022-08-18T17:28:50;6.80;;;6.30;;
11004;SDS011;5555;59.622;16.556;2022-08-18T17:31:19;7.57;;;6.87;;
11004;SDS011;5555;59.622;16.556;2022-08-18T17:33:48;6.13;;;5.73;;
11004;SDS011;5555;59.622;16.556;2022-08-18T17:36:25;6.17;;;5.63;;
11004;SDS011;5555;59.622;16.556;2022-08-18T17:38:57;8.00;;;7.40;;